Etusivu
METAR-TAF:

METAR-TAF

Lentoasemat :

Hondo, Texas, Yhdysvallat

Leveyspiiri: 29-21-34N, Pituuspiiri: 099-10-27W, korkeus merenpinnasta: 283 m

Tämänhetkinen sää

Tämä raportti tehtiin 17 minuuttia sitten, kello 09.22 UTC
Tuuli 4 kn pohjoisen/luoteesta
Lämpötila 15°C
Kosteus 94%
Ilmanpaine 1016 hPa
Näkyvyys: 2.0 km
Pilvistä 300 ft:n korkeudessa
utua

METAR: KHDO 260922Z AUTO 33004KT 1 1/4SM BR OVC003 15/14 A3000 RMK AO2 T01500144

Aika: 03:39 (09:39 UTC)


TAF: puuttuu

Säähavainnot ja -ennusteet yli 4000 lentoasemalta (METAR- ja TAF-raportit).

Käytössä olevat sääasemat on merkitty karttaan keltaisilla ja punaisilla pisteillä.

Aseta hiiri pisteen päälle nähdäksesi sääaseman nimen.

Klikkaa sitten nähdäksesi säähavainnot ja -ennusteet.

Kartan vaihtaminen: klikkaa mustalla rastilla varustettuja vihreitä pisteitä, niin voit zoomata sisään; viivalla varustettua vihreää pistettä, niin voit zoomata ulos tai vihreitä nuolia, niin pääset viereisille kartoille.


METAR-TAF: